Terminal Aerodrome Forecast
Issued by NWS Charleston, WV

Current Version | Previous Version | Graphics & Text | Print | Product List | Glossary On
Versions: 1 2 3 4 5 6 7 8 9 10 11 12 13 14 15 16 17 18 19 20 21 22 23 24 25 26 27 28
000
FTUS41 KRLX 261400 AAA
TAFBKW
TAF AMD
KBKW 261436Z 2615/2712 VRB03KT 6SM -SN BKN015 OVC025
     FM261700 31007KT P6SM BKN025
     FM262300 32005KT 6SM -SHSN BR BKN025
     FM270200 32005KT 3SM -SHSN BR BKN015
     FM271000 32007KT 6SM -SHSN BKN025=

USA.gov is the U.S. government's official web portal to all federal, state and local government web resources and services.